createdAt,value
2018-02-01T00:01:56.627Z,69.90
2018-02-01T00:04:22.848Z,70.40
2018-02-01T00:06:49.071Z,71.20
2018-02-01T00:09:15.256Z,70.10
2018-02-01T00:11:41.463Z,71.30
2018-02-01T00:14:07.756Z,71.30
2018-02-01T00:16:34.685Z,72.10
2018-02-01T00:19:01.604Z,72.20
2018-02-01T00:21:27.804Z,72.10
2018-02-01T00:23:53.990Z,71.10
2018-02-01T00:26:20.935Z,71.90
2018-02-01T00:28:47.152Z,71.80
2018-02-01T00:31:13.335Z,71.70
2018-02-01T00:33:40.259Z,72.10
2018-02-01T00:36:06.508Z,72.00
2018-02-01T00:38:33.423Z,72.00
2018-02-01T00:40:59.660Z,71.80
2018-02-01T00:43:26.646Z,73.00
2018-02-01T00:45:52.851Z,73.00
2018-02-01T00:48:19.039Z,73.60
2018-02-01T00:50:45.255Z,72.80
2018-02-01T00:53:12.185Z,72.60
2018-02-01T00:55:39.139Z,72.60
2018-02-01T00:58:05.332Z,72.50
2018-02-01T01:00:31.546Z,73.10
2018-02-01T01:02:57.760Z,73.40
2018-02-01T01:05:24.708Z,75.00
2018-02-01T01:07:51.628Z,74.90
2018-02-01T01:10:19.295Z,74.50
2018-02-01T01:12:45.552Z,74.50
2018-02-01T01:15:11.932Z,72.90
2018-02-01T01:17:38.109Z,72.70
2018-02-01T01:20:04.337Z,73.60
2018-02-01T01:22:31.292Z,73.30
2018-02-01T01:24:58.953Z,73.10
2018-02-01T01:27:25.146Z,73.10
2018-02-01T01:29:51.348Z,73.10
2018-02-01T01:32:18.288Z,74.00
2018-02-01T01:34:45.239Z,73.70
2018-02-01T01:37:11.446Z,73.60
2018-02-01T01:39:37.616Z,74.30
2018-02-01T01:42:04.572Z,73.70
2018-02-01T01:44:31.483Z,74.00
2018-02-01T01:46:57.657Z,73.90
2018-02-01T01:49:24.598Z,73.30
2018-02-01T01:51:50.788Z,73.20
2018-02-01T01:54:16.956Z,73.10
2018-02-01T01:56:43.164Z,72.50
2018-02-01T01:59:09.324Z,72.00
2018-02-01T02:01:36.252Z,72.80
2018-02-01T02:04:02.481Z,72.80
2018-02-01T02:06:28.659Z,74.10
2018-02-01T02:08:55.564Z,72.40
2018-02-01T02:11:21.755Z,72.30
2018-02-01T02:13:48.724Z,73.10
2018-02-01T02:16:15.067Z,73.10
2018-02-01T02:18:41.335Z,73.20
2018-02-01T02:21:07.513Z,72.30
2018-02-01T02:23:33.691Z,74.80
2018-02-01T02:25:59.896Z,73.70
2018-02-01T02:28:26.059Z,72.70
2018-02-01T02:30:52.241Z,72.50
2018-02-01T02:33:18.463Z,72.10
2018-02-01T02:35:45.392Z,72.80
2018-02-01T02:38:11.573Z,72.70
2018-02-01T02:40:37.812Z,72.70
2018-02-01T02:43:03.992Z,73.40
2018-02-01T02:45:30.185Z,73.70
2018-02-01T02:47:56.396Z,74.60
2018-02-01T02:50:22.572Z,74.60
2018-02-01T02:52:48.764Z,73.00
2018-02-01T02:55:14.978Z,72.90
2018-02-01T02:57:41.941Z,73.00
2018-02-01T03:00:08.146Z,73.00
2018-02-01T03:02:34.356Z,72.70
2018-02-01T03:05:00.537Z,73.80
2018-02-01T03:07:27.447Z,72.60
2018-02-01T03:09:53.667Z,72.50
2018-02-01T03:12:19.864Z,74.00
2018-02-01T03:14:46.842Z,75.00
2018-02-01T03:17:13.087Z,74.90
2018-02-01T03:19:39.268Z,74.10
2018-02-01T03:22:05.457Z,74.50
2018-02-01T03:24:31.655Z,72.50
2018-02-01T03:26:57.839Z,73.10
2018-02-01T03:29:24.022Z,73.10
2018-02-01T03:31:50.246Z,73.40
2018-02-01T03:34:17.176Z,72.20
2018-02-01T03:36:44.120Z,72.50
2018-02-01T03:39:10.352Z,72.40
2018-02-01T03:41:36.566Z,72.10
2018-02-01T03:44:02.741Z,72.60
2018-02-01T03:46:28.931Z,73.00
2018-02-01T03:48:55.076Z,72.30
2018-02-01T03:51:21.252Z,72.20
2018-02-01T03:53:48.186Z,73.60
2018-02-01T03:56:14.351Z,73.40
2018-02-01T03:58:41.257Z,72.90
2018-02-01T04:01:07.444Z,72.80
2018-02-01T04:03:34.374Z,72.50
2018-02-01T04:06:01.316Z,72.60
2018-02-01T04:08:27.512Z,72.60
2018-02-01T04:10:53.705Z,72.70
2018-02-01T04:13:20.599Z,72.50
2018-02-01T04:15:47.672Z,72.50
2018-02-01T04:18:15.656Z,73.50
2018-02-01T04:20:41.833Z,72.30
2018-02-01T04:23:08.028Z,72.40
2018-02-01T04:25:35.671Z,73.70
2018-02-01T04:28:01.852Z,73.00
2018-02-01T04:30:28.766Z,72.60
2018-02-01T04:32:54.940Z,72.60
2018-02-01T04:35:21.827Z,74.20
2018-02-01T04:37:48.020Z,74.00
2018-02-01T04:40:14.917Z,74.10
2018-02-01T04:42:41.087Z,74.10
2018-02-01T04:45:08.065Z,73.50
2018-02-01T04:47:34.235Z,73.40
2018-02-01T04:50:00.432Z,73.90
2018-02-01T04:52:26.635Z,73.70
2018-02-01T04:54:53.579Z,74.00
2018-02-01T04:57:20.501Z,73.50
2018-02-01T04:59:46.736Z,73.40
2018-02-01T05:02:12.910Z,73.40
2018-02-01T05:04:39.833Z,74.10
2018-02-01T05:07:06.036Z,74.10
2018-02-01T05:09:32.200Z,74.80
2018-02-01T05:11:58.369Z,73.70
2018-02-01T05:14:24.588Z,73.80
2018-02-01T05:16:52.500Z,73.10
2018-02-01T05:19:18.899Z,73.20
2018-02-01T05:21:45.895Z,74.30
2018-02-01T05:24:12.074Z,74.20
2018-02-01T05:26:38.267Z,73.30
2018-02-01T05:29:04.612Z,74.00
2018-02-01T05:31:30.789Z,74.40
2018-02-01T05:33:57.728Z,73.20
2018-02-01T05:36:24.708Z,74.20
2018-02-01T05:38:51.003Z,74.10
2018-02-01T05:41:18.668Z,73.60
2018-02-01T05:43:44.868Z,73.60
2018-02-01T05:46:11.085Z,74.00
2018-02-01T05:48:37.248Z,73.80
2018-02-01T05:51:03.455Z,74.50
2018-02-01T05:53:30.350Z,75.30
2018-02-01T05:55:56.520Z,75.30
2018-02-01T05:58:23.456Z,74.30
2018-02-01T06:00:49.619Z,74.30
2018-02-01T06:03:15.807Z,74.20
2018-02-01T06:05:42.001Z,73.70
2018-02-01T06:08:08.195Z,73.00
2018-02-01T06:10:34.402Z,72.70
2018-02-01T06:13:02.087Z,73.10
2018-02-01T06:15:28.260Z,73.00
2018-02-01T06:17:54.504Z,73.70
2018-02-01T06:20:20.728Z,73.10
2018-02-01T06:22:46.893Z,74.50
2018-02-01T06:25:13.060Z,73.50
2018-02-01T06:27:40.006Z,72.60
2018-02-01T06:30:06.208Z,72.50
2018-02-01T06:32:32.384Z,72.70
2018-02-01T06:34:58.553Z,72.80
2018-02-01T06:37:24.740Z,72.80
2018-02-01T06:39:50.904Z,73.00
2018-02-01T06:42:17.865Z,74.00
2018-02-01T06:44:44.069Z,73.90
2018-02-01T06:47:11.696Z,74.00
2018-02-01T06:49:38.664Z,73.30
2018-02-01T06:52:04.846Z,73.20
2018-02-01T06:54:31.757Z,73.70
2018-02-01T06:56:57.944Z,73.60
2018-02-01T06:59:24.130Z,73.40
2018-02-01T07:01:50.326Z,73.20
2018-02-01T07:04:16.562Z,73.40
2018-02-01T07:06:42.836Z,73.40
2018-02-01T07:09:08.991Z,74.30
2018-02-01T07:11:35.182Z,73.90
2018-02-01T07:14:01.340Z,74.40
2018-02-01T07:16:27.504Z,73.20
2018-02-01T07:18:53.756Z,73.40
2018-02-01T07:21:20.009Z,73.60
2018-02-01T07:23:46.178Z,73.40
2018-02-01T07:26:13.104Z,73.40
2018-02-01T07:28:39.330Z,73.40
2018-02-01T07:31:05.511Z,73.30
2018-02-01T07:33:32.414Z,74.50
2018-02-01T07:35:58.595Z,74.40
2018-02-01T07:38:24.778Z,74.10
2018-02-01T07:40:50.961Z,74.70
2018-02-01T07:43:17.879Z,73.80
2018-02-01T07:48:43.599Z,73.50
2018-02-01T07:51:09.808Z,73.40
2018-02-01T07:53:36.044Z,75.20
2018-02-01T07:56:02.224Z,74.90
2018-02-01T07:58:29.170Z,75.30
2018-02-01T08:00:55.341Z,75.20
2018-02-01T08:03:21.525Z,75.80
2018-02-01T08:05:47.724Z,75.20
2018-02-01T08:08:13.916Z,75.00
2018-02-01T08:10:40.826Z,74.70
2018-02-01T08:13:07.006Z,74.70
2018-02-01T08:15:33.931Z,73.60
2018-02-01T08:18:00.115Z,73.50
2018-02-01T08:20:26.359Z,74.00
2018-02-01T08:22:52.796Z,72.90
2018-02-01T08:25:18.959Z,72.80
2018-02-01T08:27:45.148Z,72.80
2018-02-01T08:30:11.331Z,73.70
2018-02-01T08:32:37.515Z,73.30
2018-02-01T08:35:03.713Z,73.20
2018-02-01T08:37:29.903Z,73.50
2018-02-01T08:39:56.085Z,73.40
2018-02-01T08:42:23.016Z,72.90
2018-02-01T08:44:49.199Z,72.80
2018-02-01T08:47:15.394Z,72.90
2018-02-01T08:49:41.625Z,72.30
2018-02-01T08:52:07.805Z,72.30
2018-02-01T08:54:33.975Z,72.40
2018-02-01T08:57:00.128Z,72.50
2018-02-01T08:59:26.304Z,73.30
2018-02-01T09:01:52.495Z,72.10
2018-02-01T09:04:19.468Z,72.80
2018-02-01T09:06:46.398Z,72.40
2018-02-01T09:09:13.340Z,72.90
2018-02-01T09:11:39.521Z,72.70
2018-02-01T09:14:05.728Z,72.40
2018-02-01T09:16:31.928Z,72.20
2018-02-01T09:18:58.116Z,72.30
2018-02-01T09:21:24.476Z,72.20
2018-02-01T09:23:50.981Z,72.50
2018-02-01T09:26:17.894Z,72.20
2018-02-01T09:28:44.051Z,72.20
2018-02-01T09:31:10.218Z,72.70
2018-02-01T09:33:36.403Z,72.90
2018-02-01T09:36:02.589Z,72.40
2018-02-01T09:38:28.780Z,72.50
2018-02-01T09:40:55.726Z,72.00
2018-02-01T09:43:23.413Z,71.80
2018-02-01T09:45:50.307Z,71.40
2018-02-01T09:48:16.464Z,71.20
2018-02-01T09:50:42.655Z,71.30
2018-02-01T09:53:08.807Z,72.00
2018-02-01T09:55:35.001Z,70.80
2018-02-01T09:58:01.926Z,71.50
2018-02-01T10:00:28.108Z,70.80
2018-02-01T10:02:54.318Z,71.20
2018-02-01T10:05:20.507Z,71.10
2018-02-01T10:07:46.687Z,71.00
2018-02-01T10:10:13.632Z,71.40
2018-02-01T10:12:40.591Z,72.10
2018-02-01T10:15:06.726Z,72.10
2018-02-01T10:17:33.648Z,71.70
2018-02-01T10:20:00.610Z,72.40
2018-02-01T10:22:27.580Z,71.40
2018-02-01T10:24:53.789Z,71.40
2018-02-01T10:27:19.951Z,71.70
2018-02-01T10:29:46.140Z,71.40
2018-02-01T10:32:12.370Z,70.80
2018-02-01T10:34:38.736Z,71.00
2018-02-01T10:37:04.885Z,70.90
2018-02-01T10:39:31.056Z,70.90
2018-02-01T10:41:57.223Z,70.20
2018-02-01T10:44:23.375Z,70.10
2018-02-01T10:46:50.319Z,70.30
2018-02-01T10:49:17.232Z,69.50
2018-02-01T10:51:43.395Z,69.40
2018-02-01T10:54:10.355Z,70.40
2018-02-01T10:56:37.299Z,69.30
2018-02-01T10:59:03.483Z,69.30
2018-02-01T11:01:29.648Z,68.80
2018-02-01T11:03:55.861Z,68.40
2018-02-01T11:06:22.037Z,68.30
2018-02-01T11:08:48.228Z,68.00
2018-02-01T11:11:14.387Z,68.60
2018-02-01T11:13:40.588Z,68.80
2018-02-01T11:16:06.759Z,68.40
2018-02-01T11:18:32.928Z,68.70
2018-02-01T11:20:59.082Z,68.20
2018-02-01T11:23:25.314Z,68.80
2018-02-01T11:25:51.675Z,68.80
2018-02-01T11:28:17.849Z,68.40
2018-02-01T11:30:44.780Z,68.70
2018-02-01T11:33:11.066Z,68.60
2018-02-01T11:35:37.239Z,68.40
2018-02-01T11:38:04.156Z,68.80
2018-02-01T11:40:30.308Z,68.70
2018-02-01T11:42:56.456Z,67.90
2018-02-01T11:45:22.644Z,68.30
2018-02-01T11:47:48.796Z,67.60
2018-02-01T11:50:14.974Z,68.10
2018-02-01T11:52:41.930Z,68.80
2018-02-01T11:55:08.076Z,68.70
2018-02-01T11:57:34.268Z,68.10
2018-02-01T12:00:00.451Z,68.70
2018-02-01T12:02:26.628Z,68.80
2018-02-01T12:04:52.771Z,68.80
2018-02-01T12:07:18.952Z,67.10
2018-02-01T12:09:45.121Z,67.40
2018-02-01T12:12:11.267Z,67.10
2018-02-01T12:14:37.454Z,66.90
2018-02-01T12:17:04.347Z,68.90
2018-02-01T12:19:30.534Z,68.30
2018-02-01T12:21:57.446Z,68.60
2018-02-01T12:24:23.660Z,68.60
2018-02-01T12:26:50.608Z,67.90
2018-02-01T12:29:16.786Z,67.90
2018-02-01T12:31:43.680Z,69.20
2018-02-01T12:34:09.850Z,69.10
2018-02-01T12:36:36.787Z,69.00
2018-02-01T12:39:02.945Z,68.90
2018-02-01T12:41:29.853Z,68.00
2018-02-01T12:43:56.039Z,68.00
2018-02-01T12:46:22.960Z,67.00
2018-02-01T12:48:49.125Z,66.90
2018-02-01T12:51:16.032Z,68.70
2018-02-01T12:53:42.196Z,68.70
2018-02-01T12:56:08.404Z,67.70
2018-02-01T12:58:36.075Z,67.80
2018-02-01T13:01:03.023Z,68.50
2018-02-01T13:03:29.190Z,67.80
2018-02-01T13:05:56.099Z,68.00
2018-02-01T13:08:23.034Z,68.70
2018-02-01T13:10:49.192Z,68.70
2018-02-01T13:13:15.376Z,67.70
2018-02-01T13:15:41.545Z,68.70
2018-02-01T13:18:07.712Z,68.30
2018-02-01T13:20:34.656Z,69.30
2018-02-01T13:23:00.838Z,69.30
2018-02-01T13:25:27.063Z,69.70
2018-02-01T13:27:53.456Z,70.20
2018-02-01T13:30:19.616Z,69.70
2018-02-01T13:32:46.512Z,70.00
2018-02-01T13:35:12.672Z,70.00
2018-02-01T13:37:38.825Z,70.40
2018-02-01T13:40:05.711Z,70.40
2018-02-01T13:42:31.894Z,69.60
2018-02-01T13:44:58.064Z,70.20
2018-02-01T13:47:24.223Z,70.60
2018-02-01T13:49:50.387Z,69.80
2018-02-01T13:52:16.548Z,69.80
2018-02-01T13:54:43.420Z,69.90
2018-02-01T13:57:09.584Z,69.80
2018-02-01T13:59:35.744Z,69.80
2018-02-01T14:02:01.887Z,69.40
2018-02-01T14:04:28.795Z,69.50
2018-02-01T14:06:54.955Z,69.50
2018-02-01T14:09:21.117Z,69.50
2018-02-01T14:11:47.299Z,68.80
2018-02-01T14:14:13.448Z,69.00
2018-02-01T14:16:39.585Z,70.30
2018-02-01T14:19:05.740Z,69.60
2018-02-01T14:21:31.935Z,68.90
2018-02-01T14:23:58.141Z,70.30
2018-02-01T14:26:24.561Z,69.40
2018-02-01T14:28:50.851Z,68.70
2018-02-01T14:31:17.008Z,69.10
2018-02-01T14:33:43.954Z,69.10
2018-02-01T14:36:10.119Z,69.00
2018-02-01T14:38:36.275Z,68.90
2018-02-01T14:41:02.442Z,69.10
2018-02-01T14:43:29.380Z,69.50
2018-02-01T14:45:55.527Z,69.40
2018-02-01T14:48:21.723Z,69.00
2018-02-01T14:50:47.875Z,68.80
2018-02-01T14:53:14.094Z,69.10
2018-02-01T14:55:40.963Z,70.40
2018-02-01T14:58:07.132Z,70.20
2018-02-01T15:00:34.032Z,69.40
2018-02-01T15:03:00.235Z,69.30
2018-02-01T15:05:26.382Z,71.20
2018-02-01T15:07:52.568Z,69.90
2018-02-01T15:10:19.503Z,69.60
2018-02-01T15:12:45.664Z,69.50
2018-02-01T15:15:12.562Z,69.20
2018-02-01T15:17:38.778Z,69.20
2018-02-01T15:20:05.647Z,66.80
2018-02-01T15:22:31.791Z,66.70
2018-02-01T15:24:57.956Z,66.60
2018-02-01T15:27:25.030Z,66.70
2018-02-01T15:29:51.246Z,66.20
2018-02-01T15:32:17.428Z,66.50
2018-02-01T15:34:44.340Z,66.30
2018-02-01T15:37:11.238Z,66.60
2018-02-01T15:39:37.415Z,66.60
2018-02-01T15:42:03.602Z,65.90
2018-02-01T15:44:29.743Z,65.60
2018-02-01T15:46:55.931Z,66.20
2018-02-01T15:49:22.098Z,66.20
2018-02-01T15:51:48.264Z,66.80
2018-02-01T15:54:15.164Z,67.60
2018-02-01T15:56:41.320Z,67.60
2018-02-01T15:59:07.500Z,67.00
2018-02-01T16:01:34.387Z,67.90
2018-02-01T16:04:00.536Z,67.20
2018-02-01T16:06:26.696Z,68.50
2018-02-01T16:08:52.864Z,68.10
2018-02-01T16:11:19.035Z,67.30
2018-02-01T16:13:45.228Z,66.60
2018-02-01T16:16:11.388Z,68.00
2018-02-01T16:18:37.584Z,67.60
2018-02-01T16:21:03.744Z,66.70
2018-02-01T16:23:29.908Z,67.40
2018-02-01T16:25:56.080Z,67.30
2018-02-01T16:28:23.168Z,68.70
2018-02-01T16:30:50.142Z,68.70
2018-02-01T16:33:17.863Z,68.90
2018-02-01T16:35:44.755Z,68.40
2018-02-01T16:38:10.933Z,68.40
2018-02-01T16:40:37.827Z,69.20
2018-02-01T16:43:04.006Z,69.00
2018-02-01T16:45:30.164Z,69.20
2018-02-01T16:47:56.338Z,68.70
2018-02-01T16:50:22.480Z,68.30
2018-02-01T16:52:48.663Z,68.60
2018-02-01T16:55:14.847Z,68.40
2018-02-01T16:57:41.011Z,68.50
2018-02-01T17:00:07.931Z,68.50
2018-02-01T17:02:34.100Z,68.50
2018-02-01T17:05:01.016Z,68.90
2018-02-01T17:07:27.200Z,68.90
2018-02-01T17:09:53.369Z,68.90
2018-02-01T17:12:19.535Z,69.80
2018-02-01T17:14:46.459Z,68.00
2018-02-01T17:17:12.676Z,68.00
2018-02-01T17:19:38.831Z,68.40
2018-02-01T17:22:05.002Z,70.00
2018-02-01T17:24:31.900Z,68.50
2018-02-01T17:26:58.068Z,68.40
2018-02-01T17:29:24.292Z,68.60
2018-02-01T17:31:50.612Z,68.40
2018-02-01T17:34:16.788Z,70.10
2018-02-01T17:36:43.712Z,70.20
2018-02-01T17:39:09.888Z,70.20
2018-02-01T17:41:36.775Z,70.90
2018-02-01T17:44:02.944Z,70.80
2018-02-01T17:46:29.866Z,70.40
2018-02-01T17:48:56.007Z,70.30
2018-02-01T17:51:22.184Z,70.50
2018-02-01T17:53:48.343Z,70.20
2018-02-01T17:56:14.512Z,70.50
2018-02-01T17:58:40.683Z,69.80
2018-02-01T18:01:06.860Z,70.40
2018-02-01T18:03:33.024Z,70.60
2018-02-01T18:05:59.943Z,70.40
2018-02-01T18:08:26.088Z,70.40
2018-02-01T18:10:52.284Z,71.50
2018-02-01T18:13:18.504Z,71.70
2018-02-01T18:15:44.697Z,71.50
2018-02-01T18:18:11.627Z,70.60
2018-02-01T18:20:37.837Z,70.60
2018-02-01T18:23:04.023Z,71.00
2018-02-01T18:25:30.927Z,71.50
2018-02-01T18:27:57.108Z,71.30
2018-02-01T18:30:24.123Z,71.50
2018-02-01T18:32:50.464Z,71.40
2018-02-01T18:35:16.623Z,71.10
2018-02-01T18:37:44.271Z,71.20
2018-02-01T18:40:10.427Z,71.30
2018-02-01T18:42:37.388Z,71.70
2018-02-01T18:45:03.568Z,71.70
2018-02-01T18:47:29.730Z,71.70
2018-02-01T18:49:57.388Z,71.70
2018-02-01T18:52:23.559Z,71.80
2018-02-01T18:54:50.493Z,71.40
2018-02-01T18:57:16.698Z,71.40
2018-02-01T18:59:42.872Z,71.60
2018-02-01T19:02:09.784Z,71.20
2018-02-01T19:04:35.956Z,71.10
2018-02-01T19:07:02.872Z,72.00
2018-02-01T19:09:29.080Z,72.00
2018-02-01T19:11:55.264Z,72.40
2018-02-01T19:14:22.178Z,71.60
2018-02-01T19:16:48.351Z,71.50
2018-02-01T19:19:15.274Z,71.70
2018-02-01T19:21:41.442Z,71.70
2018-02-01T19:24:07.620Z,71.90
2018-02-01T19:26:33.792Z,72.30
2018-02-01T19:29:00.716Z,71.70
2018-02-01T19:31:26.941Z,71.70
2018-02-01T19:33:53.305Z,71.90
2018-02-01T19:36:19.468Z,72.20
2018-02-01T19:38:45.671Z,71.60
2018-02-01T19:41:13.322Z,71.80
2018-02-01T19:43:39.484Z,71.70
2018-02-01T19:46:06.407Z,73.20
2018-02-01T19:48:32.572Z,72.40
2018-02-01T19:50:58.728Z,71.20
2018-02-01T19:53:25.681Z,71.00
2018-02-01T19:55:52.583Z,71.50
2018-02-01T19:58:18.752Z,71.40
2018-02-01T20:00:45.660Z,71.50
2018-02-01T20:03:11.899Z,71.50
2018-02-01T20:05:38.095Z,72.00
2018-02-01T20:08:04.259Z,71.90
2018-02-01T20:10:30.447Z,72.30
2018-02-01T20:12:56.607Z,71.50
2018-02-01T20:15:22.781Z,71.20
2018-02-01T20:17:48.985Z,71.50
2018-02-01T20:20:15.160Z,72.60
2018-02-01T20:22:41.340Z,73.30
2018-02-01T20:25:07.535Z,72.50
2018-02-01T20:27:34.432Z,72.20
2018-02-01T20:30:00.596Z,72.20
2018-02-01T20:32:26.867Z,72.30
2018-02-01T20:34:53.240Z,71.30
2018-02-01T20:37:19.399Z,72.30
2018-02-01T20:39:45.917Z,71.10
2018-02-01T20:42:13.588Z,70.80
2018-02-01T20:44:39.751Z,70.80
2018-02-01T20:47:05.942Z,70.90
2018-02-01T20:49:32.106Z,71.10
2018-02-01T20:51:58.295Z,70.70
2018-02-01T20:54:24.489Z,70.40
2018-02-01T20:56:51.392Z,71.40
2018-02-01T20:59:17.543Z,70.60
2018-02-01T21:01:43.712Z,71.00
2018-02-01T21:04:10.611Z,70.80
2018-02-01T21:06:36.755Z,70.70
2018-02-01T21:09:02.913Z,71.50
2018-02-01T21:11:29.816Z,71.50
2018-02-01T21:13:56.001Z,71.40
2018-02-01T21:16:22.160Z,70.80
2018-02-01T21:18:49.053Z,71.70
2018-02-01T21:21:15.213Z,71.70
2018-02-01T21:23:42.226Z,71.00
2018-02-01T21:26:08.390Z,70.90
2018-02-01T21:28:34.540Z,71.10
2018-02-01T21:31:01.484Z,71.30
2018-02-01T21:33:27.779Z,71.30
2018-02-01T21:35:54.135Z,71.60
2018-02-01T21:38:20.309Z,71.60
2018-02-01T21:40:47.184Z,71.30
2018-02-01T21:43:13.331Z,71.20
2018-02-01T21:45:39.491Z,71.40
2018-02-01T21:48:05.631Z,71.90
2018-02-01T21:50:31.768Z,71.30
2018-02-01T21:52:58.740Z,72.10
2018-02-01T21:55:24.919Z,72.00
2018-02-01T21:57:51.064Z,71.10
2018-02-01T22:00:17.248Z,71.40
2018-02-01T22:02:43.396Z,71.30
2018-02-01T22:05:09.539Z,71.50
2018-02-01T22:07:35.700Z,71.60
2018-02-01T22:10:01.857Z,71.50
2018-02-01T22:12:28.491Z,71.50
2018-02-01T22:14:54.661Z,71.50
2018-02-01T22:17:20.839Z,71.80
2018-02-01T22:19:47.013Z,71.80
2018-02-01T22:22:13.196Z,71.80
2018-02-01T22:24:39.372Z,71.70
2018-02-01T22:27:06.291Z,71.70
2018-02-01T22:29:32.476Z,71.60
2018-02-01T22:31:58.628Z,71.30
2018-02-01T22:34:24.847Z,70.90
2018-02-01T22:36:51.241Z,71.50
2018-02-01T22:39:17.405Z,70.50
2018-02-01T22:41:43.556Z,71.00
2018-02-01T22:44:09.723Z,71.20
2018-02-01T22:46:35.866Z,72.40
2018-02-01T22:49:02.060Z,71.80
2018-02-01T22:51:28.223Z,71.90
2018-02-01T22:53:54.381Z,70.60
2018-02-01T22:56:20.544Z,71.30
2018-02-01T22:58:46.711Z,71.20
2018-02-01T23:01:12.855Z,71.00
2018-02-01T23:03:39.016Z,71.00
2018-02-01T23:06:05.212Z,70.30
2018-02-01T23:08:31.371Z,71.70
2018-02-01T23:10:58.281Z,70.60
2018-02-01T23:13:24.455Z,70.60
2018-02-01T23:15:50.600Z,70.10
2018-02-01T23:18:16.773Z,70.20
2018-02-01T23:20:42.972Z,70.30
2018-02-01T23:23:09.155Z,71.60
2018-02-01T23:25:35.304Z,71.10
2018-02-01T23:28:01.472Z,70.80
2018-02-01T23:30:28.369Z,71.10
2018-02-01T23:32:54.519Z,71.00
2018-02-01T23:35:20.895Z,71.10
2018-02-01T23:37:47.196Z,71.20
2018-02-01T23:40:13.380Z,71.40
2018-02-01T23:42:39.576Z,71.60
2018-02-01T23:45:05.735Z,71.10
2018-02-01T23:47:32.633Z,71.20
2018-02-01T23:49:58.824Z,71.20
2018-02-01T23:52:25.005Z,70.90
2018-02-01T23:54:51.167Z,71.00
2018-02-01T23:57:17.328Z,71.40
2018-02-01T23:59:43.542Z,71.20
